Terminal Aerodrome Forecast
Issued by NWS Northern Indiana

Home | Current Version | Previous Version | Text Only | Print | Product List | Glossary On
Versions: 1 2 3 4 5 6 7 8 9 10 11 12 13 14 15 16
084
FTUS43 KIWX 290533
TAFFWA
TAF
KFWA 290533Z 2906/3006 04005KT P6SM BKN020
      TEMPO 2906/2910 5SM BR SCT020
     FM291000 06007KT P6SM SCT250
     FM291400 07013KT P6SM BKN120
     FM300000 08014G22KT P6SM BKN150=

USA.gov is the U.S. government's official web portal to all federal, state and local government web resources and services.